createdAt,value
2019-01-10T00:07:48.998Z,1.09
2019-01-10T00:12:53.285Z,1.06
2019-01-10T00:28:43.172Z,1.10
2019-01-10T00:33:48.146Z,1.16
2019-01-10T00:39:11.709Z,1.14
2019-01-10T00:54:41.316Z,1.12
2019-01-10T01:00:25.035Z,1.11
2019-01-10T01:05:48.664Z,1.13
2019-01-10T01:11:12.375Z,1.13
2019-01-10T01:26:36.592Z,1.12
2019-01-10T01:31:40.813Z,1.11
2019-01-10T01:36:45.035Z,1.04
2019-01-10T01:47:18.402Z,1.02
2019-01-10T01:52:23.043Z,1.02
2019-01-10T02:02:56.507Z,1.09
2019-01-10T02:13:16.673Z,1.01
2019-01-10T02:18:16.969Z,0.88
2019-01-10T02:23:40.257Z,0.78
2019-01-10T02:29:03.556Z,0.76
2019-01-10T02:34:07.784Z,0.62
2019-01-10T02:39:51.427Z,0.61
2019-01-10T02:50:45.079Z,0.58
2019-01-10T03:00:59.221Z,0.66
2019-01-10T03:06:03.451Z,0.64
2019-01-10T03:11:07.684Z,0.69
2019-01-10T03:16:30.993Z,0.71
2019-01-10T03:21:35.353Z,0.69
2019-01-10T03:31:49.842Z,0.82
2019-01-10T03:36:54.113Z,0.77
2019-01-10T03:42:17.417Z,0.80
2019-01-10T03:47:21.650Z,0.73
2019-01-10T03:52:44.944Z,0.74
2019-01-10T03:57:49.180Z,0.74
2019-01-10T04:02:53.413Z,0.72
2019-01-10T04:13:07.998Z,0.69
2019-01-10T04:18:12.221Z,0.62
2019-01-10T04:23:16.555Z,0.55
2019-01-10T04:28:20.799Z,0.54
2019-01-10T04:33:44.106Z,0.61
2019-01-10T04:38:48.336Z,0.67
2019-01-10T04:43:52.580Z,0.72
2019-01-10T04:48:56.821Z,0.71
2019-01-10T04:54:01.067Z,0.71
2019-01-10T05:04:15.347Z,0.67
2019-01-10T05:09:19.979Z,0.58
2019-01-10T05:14:24.204Z,0.55
2019-01-10T05:19:28.724Z,0.47
2019-01-10T05:24:45.292Z,0.43
2019-01-10T05:29:49.884Z,0.37
2019-01-10T05:34:54.423Z,0.34
2019-01-10T05:40:18.015Z,0.32
2019-01-10T05:55:41.703Z,0.25
2019-01-10T06:01:04.957Z,0.23
2019-01-10T06:06:09.204Z,0.21
2019-01-10T06:16:23.032Z,0.21
2019-01-10T06:21:46.351Z,0.24
2019-01-10T06:32:19.057Z,0.21
2019-01-10T06:37:23.320Z,0.19
2019-01-10T06:42:27.578Z,0.16
2019-01-10T06:47:31.833Z,0.17
2019-01-10T06:52:36.076Z,0.18
2019-01-10T07:03:29.012Z,0.18
2019-01-10T07:08:33.239Z,0.17
2019-01-10T07:13:56.539Z,0.13
2019-01-10T07:19:00.790Z,0.12
2019-01-10T07:24:05.026Z,0.12
2019-01-10T07:29:50.074Z,0.13
2019-01-10T07:35:13.894Z,0.16
2019-01-10T07:40:57.817Z,0.19
2019-01-10T07:46:45.728Z,0.26
2019-01-10T07:51:49.977Z,0.28
2019-01-10T07:57:13.588Z,0.33
2019-01-10T08:02:37.131Z,0.44
2019-01-10T08:07:41.378Z,0.48
2019-01-10T08:12:45.619Z,0.48
2019-01-10T08:18:29.556Z,0.47
2019-01-10T08:29:02.935Z,0.53
2019-01-10T08:39:36.459Z,0.62
2019-01-10T08:44:59.806Z,0.61
2019-01-10T09:00:44.501Z,0.75
2019-01-10T09:06:08.363Z,0.69
2019-01-10T09:16:24.139Z,0.87
2019-01-10T09:31:47.872Z,1.06
2019-01-10T09:37:11.272Z,1.15
2019-01-10T09:42:34.565Z,1.17
2019-01-10T09:47:38.801Z,1.09
2019-01-10T09:52:43.102Z,1.21
2019-01-10T09:57:47.398Z,1.13
2019-01-10T10:02:51.635Z,1.23
2019-01-10T10:08:14.963Z,1.21
2019-01-10T10:18:29.148Z,1.27
2019-01-10T10:23:33.390Z,1.15
2019-01-10T10:28:38.052Z,1.24
2019-01-10T10:33:42.277Z,1.26
2019-01-10T10:38:58.527Z,1.38
2019-01-10T10:44:02.765Z,1.30
2019-01-10T10:49:46.618Z,1.28
2019-01-10T10:55:10.121Z,1.29
2019-01-10T11:00:55.531Z,1.28
2019-01-10T11:16:19.923Z,1.18
2019-01-10T11:21:43.471Z,1.26
2019-01-10T11:27:06.767Z,1.32
2019-01-10T11:32:13.408Z,1.41
2019-01-10T11:42:26.342Z,1.47
2019-01-10T11:47:30.613Z,1.51
2019-01-10T11:52:35.246Z,1.52
2019-01-10T11:58:18.869Z,1.54
2019-01-10T12:03:23.143Z,1.60
2019-01-10T12:13:56.408Z,1.69
2019-01-10T12:29:39.844Z,1.81
2019-01-10T12:45:22.231Z,1.72
2019-01-10T12:50:45.537Z,1.81
2019-01-10T12:55:49.773Z,1.84
2019-01-10T13:00:53.996Z,1.95
2019-01-10T13:05:58.237Z,1.88
2019-01-10T13:11:02.564Z,1.90
2019-01-10T13:16:06.876Z,1.88
2019-01-10T13:32:09.002Z,2.18
2019-01-10T13:47:53.677Z,2.37
2019-01-10T13:52:57.995Z,2.29
2019-01-10T13:58:21.500Z,2.42
2019-01-10T14:03:25.778Z,2.36
2019-01-10T14:08:49.091Z,2.60
2019-01-10T14:13:53.310Z,2.71
2019-01-10T14:19:16.630Z,2.67
2019-01-10T14:24:39.901Z,2.42
2019-01-10T14:35:13.543Z,2.35
2019-01-10T14:40:36.852Z,2.24
2019-01-10T14:46:20.893Z,2.29
2019-01-10T14:56:58.061Z,2.30
2019-01-10T15:17:50.668Z,1.98
2019-01-10T15:28:42.873Z,1.66
2019-01-10T15:33:47.110Z,1.66
2019-01-10T15:38:51.379Z,1.57
2019-01-10T15:55:12.505Z,1.48
2019-01-10T16:21:14.587Z,1.34
2019-01-10T16:26:18.925Z,1.34
2019-01-10T16:31:23.155Z,1.26
2019-01-10T16:36:27.391Z,1.22
2019-01-10T16:41:50.600Z,1.12
2019-01-10T16:46:54.839Z,1.04
2019-01-10T16:51:59.068Z,1.06
2019-01-10T16:57:15.466Z,1.13
2019-01-10T17:02:19.693Z,1.09
2019-01-10T17:12:33.781Z,1.02
2019-01-10T17:23:06.942Z,0.95
2019-01-10T17:49:29.355Z,0.82
2019-01-10T17:54:33.735Z,0.79
2019-01-10T17:59:38.229Z,0.83
2019-01-10T18:04:42.830Z,0.88
2019-01-10T18:09:47.061Z,0.93
2019-01-10T18:20:01.404Z,0.78
2019-01-10T18:25:45.177Z,0.53
2019-01-10T18:30:49.483Z,0.49
2019-01-10T18:36:12.890Z,0.53
2019-01-10T18:52:35.175Z,0.43
2019-01-10T18:57:58.499Z,0.46
2019-01-10T19:03:42.188Z,0.42
2019-01-10T19:20:06.013Z,0.43
2019-01-10T19:30:58.983Z,0.39
2019-01-10T19:36:03.220Z,0.36
2019-01-10T19:46:17.186Z,0.33
2019-01-10T19:51:40.490Z,0.33
2019-01-10T19:56:44.722Z,0.32
2019-01-10T20:12:46.247Z,0.43
2019-01-10T20:23:43.636Z,0.43
2019-01-10T20:34:16.918Z,0.40
2019-01-10T20:39:21.159Z,0.40
2019-01-10T20:44:25.470Z,0.32
2019-01-10T20:54:39.368Z,0.31
2019-01-10T21:10:55.621Z,0.34
2019-01-10T21:26:39.666Z,0.36
2019-01-10T21:32:03.007Z,0.33
2019-01-10T21:43:16.424Z,0.31
2019-01-10T21:48:39.748Z,0.32
2019-01-10T21:54:03.320Z,0.26
2019-01-10T21:59:08.981Z,0.32
2019-01-10T22:04:32.282Z,0.37
2019-01-10T22:09:36.551Z,0.36
2019-01-10T22:14:52.591Z,0.35
2019-01-10T22:20:08.360Z,0.35
2019-01-10T22:30:42.802Z,0.26
2019-01-10T22:35:47.113Z,0.31
2019-01-10T22:46:21.598Z,0.24
2019-01-10T22:51:25.887Z,0.26
2019-01-10T23:02:43.933Z,0.21
2019-01-10T23:07:48.554Z,0.24
2019-01-10T23:13:12.018Z,0.15
2019-01-10T23:18:27.797Z,0.17
2019-01-10T23:29:01.361Z,0.15
2019-01-10T23:34:24.747Z,0.19
2019-01-10T23:39:29.014Z,0.20
2019-01-10T23:44:33.423Z,0.21
2019-01-10T23:49:57.123Z,0.26
2019-01-10T23:55:40.809Z,0.28
